createdAt,value
2017-11-20T00:00:55.947Z,4.07
2017-11-20T00:03:23.575Z,3.80
2017-11-20T00:05:51.191Z,6.65
2017-11-20T00:08:19.608Z,4.65
2017-11-20T00:10:47.219Z,4.20
2017-11-20T00:13:14.877Z,4.00
2017-11-20T00:15:42.517Z,4.30
2017-11-20T00:18:10.147Z,4.75
2017-11-20T00:20:38.559Z,4.05
2017-11-20T00:23:06.173Z,4.85
2017-11-20T00:25:33.832Z,3.72
2017-11-20T00:28:01.461Z,5.15
2017-11-20T00:30:29.076Z,6.40
2017-11-20T00:32:56.739Z,4.95
2017-11-20T00:35:25.126Z,4.45
2017-11-20T00:37:52.778Z,6.55
2017-11-20T00:40:20.395Z,6.55
2017-11-20T00:42:48.793Z,7.20
2017-11-20T00:45:16.440Z,4.57
2017-11-20T00:47:44.065Z,7.75
2017-11-20T00:50:11.717Z,6.25
2017-11-20T00:52:39.331Z,6.18
2017-11-20T00:55:06.953Z,4.15
2017-11-20T00:57:34.605Z,4.68
2017-11-20T01:00:02.228Z,5.62
2017-11-20T01:02:29.885Z,8.20
2017-11-20T01:04:57.508Z,5.68
2017-11-20T01:07:25.147Z,4.75
2017-11-20T01:09:52.795Z,5.78
2017-11-20T01:12:20.415Z,4.93
2017-11-20T01:14:48.846Z,6.90
2017-11-20T01:17:16.455Z,7.05
2017-11-20T01:19:44.076Z,4.12
2017-11-20T01:22:12.483Z,5.15
2017-11-20T01:24:40.099Z,6.05
2017-11-20T01:27:07.739Z,4.82
2017-11-20T01:29:36.120Z,4.97
2017-11-20T01:32:03.746Z,4.90
2017-11-20T01:34:32.157Z,4.70
2017-11-20T01:36:59.771Z,4.45
2017-11-20T01:39:27.421Z,4.32
2017-11-20T01:41:55.040Z,5.55
2017-11-20T01:44:23.414Z,4.30
2017-11-20T01:46:51.824Z,4.97
2017-11-20T01:49:19.444Z,4.78
2017-11-20T01:51:47.091Z,3.85
2017-11-20T01:54:14.713Z,5.90
2017-11-20T01:56:43.100Z,5.85
2017-11-20T01:59:10.749Z,4.47
2017-11-20T02:01:38.363Z,5.40
2017-11-20T02:04:06.787Z,6.18
2017-11-20T02:06:34.399Z,5.12
2017-11-20T02:09:02.047Z,6.68
2017-11-20T02:11:29.701Z,6.03
2017-11-20T02:13:57.312Z,6.40
2017-11-20T02:16:24.955Z,4.72
2017-11-20T02:18:53.330Z,4.37
2017-11-20T02:21:21.727Z,4.80
2017-11-20T02:23:49.465Z,10.75
2017-11-20T02:26:17.090Z,4.68
2017-11-20T02:28:45.508Z,8.18
2017-11-20T02:31:13.147Z,10.30
2017-11-20T02:33:40.775Z,5.87
2017-11-20T02:36:08.424Z,5.47
2017-11-20T02:38:36.088Z,5.72
2017-11-20T02:41:03.734Z,5.85
2017-11-20T02:43:31.352Z,7.35
2017-11-20T02:45:59.039Z,5.12
2017-11-20T02:48:26.684Z,6.03
2017-11-20T02:50:54.306Z,5.53
2017-11-20T02:53:21.964Z,5.97
2017-11-20T02:55:49.585Z,5.05
2017-11-20T02:58:17.223Z,6.93
2017-11-20T03:00:44.890Z,5.95
2017-11-20T03:03:12.508Z,5.07
2017-11-20T03:05:40.154Z,5.20
2017-11-20T03:08:08.535Z,4.90
2017-11-20T03:10:36.153Z,5.28
2017-11-20T03:13:04.588Z,7.30
2017-11-20T03:15:32.223Z,4.07
2017-11-20T03:17:59.891Z,4.37
2017-11-20T03:20:27.506Z,5.95
2017-11-20T03:22:55.121Z,3.65
2017-11-20T03:25:22.775Z,7.85
2017-11-20T03:27:50.391Z,4.95
2017-11-20T03:30:18.808Z,5.60
2017-11-20T03:32:46.439Z,5.50
2017-11-20T03:35:14.050Z,9.02
2017-11-20T03:37:42.484Z,5.30
2017-11-20T03:40:10.117Z,7.45
2017-11-20T03:42:37.804Z,6.82
2017-11-20T03:45:05.458Z,7.10
2017-11-20T03:47:33.907Z,5.90
2017-11-20T03:50:01.560Z,5.85
2017-11-20T03:52:29.171Z,6.47
2017-11-20T03:54:56.792Z,10.38
2017-11-20T03:57:24.447Z,9.50
2017-11-20T03:59:52.051Z,7.18
2017-11-20T04:02:20.444Z,9.23
2017-11-20T04:04:48.113Z,7.95
2017-11-20T04:07:15.725Z,8.45
2017-11-20T04:09:43.371Z,5.80
2017-11-20T04:12:11.020Z,6.80
2017-11-20T04:14:38.634Z,7.07
2017-11-20T04:17:06.247Z,8.27
2017-11-20T04:19:33.897Z,5.07
2017-11-20T04:22:01.518Z,9.43
2017-11-20T04:24:29.136Z,6.80
2017-11-20T04:26:56.781Z,9.73
2017-11-20T04:29:25.173Z,10.23
2017-11-20T04:31:52.841Z,11.38
2017-11-20T04:34:20.475Z,9.32
2017-11-20T04:36:48.099Z,9.75
2017-11-20T04:39:15.715Z,10.93
2017-11-20T04:41:43.367Z,14.70
2017-11-20T04:44:10.983Z,16.10
2017-11-20T04:46:38.624Z,9.32
2017-11-20T04:49:06.244Z,10.98
2017-11-20T04:51:33.863Z,9.15
2017-11-20T04:54:02.291Z,7.80
2017-11-20T04:56:29.911Z,10.20
2017-11-20T04:58:57.554Z,7.90
2017-11-20T05:01:25.174Z,11.38
2017-11-20T05:03:52.835Z,11.23
2017-11-20T05:06:20.479Z,11.48
2017-11-20T05:08:48.107Z,11.65
2017-11-20T05:11:15.790Z,8.48
2017-11-20T05:13:43.408Z,9.82
2017-11-20T05:16:11.042Z,8.50
2017-11-20T05:18:39.450Z,9.82
2017-11-20T05:21:07.085Z,6.55
2017-11-20T05:23:34.731Z,8.27
2017-11-20T05:26:02.353Z,9.80
2017-11-20T05:28:30.740Z,8.20
2017-11-20T05:30:58.416Z,7.65
2017-11-20T05:33:26.031Z,7.00
2017-11-20T05:35:53.679Z,8.38
2017-11-20T05:38:21.291Z,8.63
2017-11-20T05:40:49.694Z,6.68
2017-11-20T05:43:17.342Z,9.63
2017-11-20T05:45:44.951Z,8.65
2017-11-20T05:48:13.394Z,7.25
2017-11-20T05:50:41.007Z,3.90
2017-11-20T05:53:08.749Z,10.55
2017-11-20T05:55:36.410Z,6.30
2017-11-20T05:58:04.041Z,8.63
2017-11-20T06:00:31.695Z,8.75
2017-11-20T06:02:59.308Z,10.68
2017-11-20T06:05:27.836Z,8.23
2017-11-20T06:07:55.484Z,6.80
2017-11-20T06:10:23.116Z,7.00
2017-11-20T06:12:50.777Z,8.45
2017-11-20T06:15:18.391Z,12.63
2017-11-20T06:17:46.005Z,10.13
2017-11-20T06:20:13.647Z,7.12
2017-11-20T06:22:42.023Z,13.07
2017-11-20T06:25:09.683Z,6.93
2017-11-20T06:27:37.311Z,6.78
2017-11-20T06:30:05.696Z,6.72
2017-11-20T06:32:33.358Z,9.95
2017-11-20T06:35:00.972Z,7.30
2017-11-20T06:37:28.623Z,7.57
2017-11-20T06:39:56.263Z,8.30
2017-11-20T06:42:23.878Z,8.27
2017-11-20T06:44:51.690Z,10.93
2017-11-20T06:47:19.307Z,12.77
2017-11-20T06:49:46.958Z,16.77
2017-11-20T06:52:14.594Z,9.13
2017-11-20T06:54:42.990Z,12.02
2017-11-20T06:57:10.638Z,10.65
2017-11-20T06:59:38.386Z,10.32
2017-11-20T07:02:06.022Z,16.62
2017-11-20T07:04:33.647Z,8.13
2017-11-20T07:07:02.035Z,9.35
2017-11-20T07:09:29.679Z,9.45
2017-11-20T07:11:57.301Z,10.00
2017-11-20T07:14:25.725Z,12.77
2017-11-20T07:16:53.364Z,11.80
2017-11-20T07:19:20.985Z,12.23
2017-11-20T07:21:48.635Z,9.40
2017-11-20T07:24:16.256Z,14.02
2017-11-20T07:26:55.852Z,12.48
2017-11-20T07:29:35.432Z,16.37
2017-11-20T07:32:03.093Z,19.02
2017-11-20T07:34:42.519Z,15.13
2017-11-20T07:37:22.041Z,12.57
2017-11-20T07:40:01.779Z,10.40
2017-11-20T07:42:29.421Z,15.13
2017-11-20T07:44:57.155Z,18.27
2017-11-20T07:47:24.816Z,15.40
2017-11-20T07:49:52.451Z,11.85
2017-11-20T07:52:20.079Z,11.57
2017-11-20T07:54:47.726Z,10.77
2017-11-20T07:57:15.341Z,12.80
2017-11-20T07:59:43.754Z,12.05
2017-11-20T08:02:11.374Z,12.63
2017-11-20T08:04:39.054Z,10.10
2017-11-20T08:07:06.699Z,9.63
2017-11-20T08:09:34.381Z,12.95
2017-11-20T08:12:02.036Z,20.37
2017-11-20T08:14:30.423Z,11.35
2017-11-20T08:16:58.042Z,16.20
2017-11-20T08:19:26.468Z,11.80
2017-11-20T08:21:54.095Z,13.32
2017-11-20T08:24:21.738Z,13.38
2017-11-20T08:26:49.358Z,11.75
2017-11-20T08:29:16.990Z,10.65
2017-11-20T08:31:44.641Z,17.77
2017-11-20T08:34:13.039Z,15.60
2017-11-20T08:36:40.697Z,10.52
2017-11-20T08:39:08.312Z,10.57
2017-11-20T08:41:36.707Z,14.55
2017-11-20T08:44:04.398Z,7.55
2017-11-20T08:46:32.034Z,9.82
2017-11-20T08:48:59.704Z,11.75
2017-11-20T08:51:28.090Z,13.85
2017-11-20T08:53:55.743Z,13.85
2017-11-20T08:56:23.397Z,11.93
2017-11-20T08:58:51.032Z,13.15
2017-11-20T09:01:18.711Z,10.48
2017-11-20T09:03:46.323Z,8.45
2017-11-20T09:06:13.968Z,12.82
2017-11-20T09:08:41.582Z,10.32
2017-11-20T09:11:09.200Z,7.60
2017-11-20T09:13:36.853Z,11.45
2017-11-20T09:16:04.473Z,12.85
2017-11-20T09:18:32.114Z,7.47
2017-11-20T09:20:59.742Z,10.43
2017-11-20T09:23:27.352Z,10.15
2017-11-20T09:25:54.999Z,8.63
2017-11-20T09:28:22.623Z,11.73
2017-11-20T09:30:50.267Z,10.18
2017-11-20T09:33:17.900Z,15.40
2017-11-20T09:35:45.514Z,7.37
2017-11-20T09:38:13.939Z,13.13
2017-11-20T09:40:41.559Z,9.95
2017-11-20T09:43:09.175Z,7.90
2017-11-20T09:45:36.842Z,12.30
2017-11-20T09:48:04.454Z,9.18
2017-11-20T09:50:32.107Z,9.48
2017-11-20T09:53:00.498Z,12.25
2017-11-20T09:55:28.111Z,11.02
2017-11-20T09:57:56.533Z,9.20
2017-11-20T10:00:24.142Z,8.15
2017-11-20T10:02:51.784Z,9.10
2017-11-20T10:05:19.419Z,8.52
2017-11-20T10:07:47.803Z,12.00
2017-11-20T10:10:15.452Z,7.55
2017-11-20T10:12:43.076Z,9.27
2017-11-20T10:15:10.715Z,9.48
2017-11-20T10:17:39.114Z,6.32
2017-11-20T10:22:40.668Z,7.45
2017-11-20T10:25:08.297Z,9.10
2017-11-20T10:27:35.953Z,11.43
2017-11-20T10:30:03.613Z,10.88
2017-11-20T10:32:31.245Z,8.52
2017-11-20T10:34:58.921Z,6.95
2017-11-20T10:37:26.550Z,6.57
2017-11-20T10:39:54.164Z,7.30
2017-11-20T10:42:21.819Z,6.90
2017-11-20T10:44:49.466Z,7.93
2017-11-20T10:47:17.106Z,7.90
2017-11-20T10:49:44.736Z,8.30
2017-11-20T10:52:13.145Z,7.05
2017-11-20T10:54:40.792Z,6.47
2017-11-20T10:57:08.419Z,5.87
2017-11-20T10:59:36.370Z,6.75
2017-11-20T11:02:03.978Z,6.35
2017-11-20T11:04:32.379Z,6.68
2017-11-20T11:07:00.035Z,5.95
2017-11-20T11:09:27.649Z,6.03
2017-11-20T11:11:55.297Z,6.72
2017-11-20T11:14:23.684Z,6.20
2017-11-20T11:16:51.305Z,5.65
2017-11-20T11:19:19.727Z,5.50
2017-11-20T11:21:47.345Z,6.47
2017-11-20T11:24:14.979Z,5.60
2017-11-20T11:26:42.671Z,8.48
2017-11-20T11:29:10.308Z,7.57
2017-11-20T11:31:37.977Z,7.80
2017-11-20T11:34:05.597Z,6.35
2017-11-20T11:36:33.250Z,7.35
2017-11-20T11:39:00.867Z,6.90
2017-11-20T11:41:28.513Z,7.80
2017-11-20T11:43:56.166Z,6.30
2017-11-20T11:46:23.806Z,8.82
2017-11-20T11:48:51.448Z,8.05
2017-11-20T11:51:19.062Z,8.82
2017-11-20T11:53:47.448Z,8.63
2017-11-20T11:56:15.143Z,9.68
2017-11-20T11:58:42.782Z,10.43
2017-11-20T12:01:11.214Z,11.77
2017-11-20T12:03:38.820Z,9.52
2017-11-20T12:06:06.423Z,8.85
2017-11-20T12:08:34.835Z,8.07
2017-11-20T12:11:02.468Z,8.48
2017-11-20T12:13:30.120Z,5.85
2017-11-20T12:15:57.787Z,6.82
2017-11-20T12:18:25.421Z,6.95
2017-11-20T12:20:53.067Z,4.40
2017-11-20T12:23:20.692Z,8.90
2017-11-20T12:25:48.382Z,6.78
2017-11-20T12:28:16.001Z,6.78
2017-11-20T12:30:43.621Z,6.68
2017-11-20T12:33:11.273Z,9.30
2017-11-20T12:35:38.904Z,11.75
2017-11-20T12:38:06.544Z,7.35
2017-11-20T12:40:35.036Z,9.32
2017-11-20T12:43:02.662Z,8.23
2017-11-20T12:45:31.067Z,10.77
2017-11-20T12:47:58.720Z,8.90
2017-11-20T12:50:26.362Z,9.70
2017-11-20T12:52:53.968Z,8.50
2017-11-20T12:55:22.340Z,9.30
2017-11-20T12:57:50.769Z,11.43
2017-11-20T13:00:18.383Z,11.50
2017-11-20T13:02:46.037Z,9.75
2017-11-20T13:05:13.662Z,13.52
2017-11-20T13:07:41.308Z,11.60
2017-11-20T13:10:08.968Z,14.05
2017-11-20T13:12:36.598Z,12.70
2017-11-20T13:15:04.258Z,12.55
2017-11-20T13:17:32.451Z,14.40
2017-11-20T13:20:00.078Z,15.18
2017-11-20T13:22:27.747Z,14.63
2017-11-20T13:24:55.368Z,17.23
2017-11-20T13:27:23.036Z,14.55
2017-11-20T13:29:50.698Z,17.62
2017-11-20T13:32:19.230Z,19.17
2017-11-20T13:34:46.891Z,17.17
2017-11-20T13:37:14.528Z,20.88
2017-11-20T13:39:42.188Z,14.40
2017-11-20T13:42:09.877Z,14.68
2017-11-20T13:44:37.500Z,16.58
2017-11-20T13:47:05.924Z,18.33
2017-11-20T13:49:33.570Z,18.60
2017-11-20T13:52:01.228Z,15.95
2017-11-20T13:54:28.864Z,15.18
2017-11-20T13:56:56.495Z,18.33
2017-11-20T13:59:24.154Z,15.15
2017-11-20T14:01:51.791Z,17.42
2017-11-20T14:04:19.448Z,16.25
2017-11-20T14:06:47.137Z,12.65
2017-11-20T14:09:14.787Z,17.35
2017-11-20T14:11:42.459Z,12.13
2017-11-20T14:14:10.100Z,13.18
2017-11-20T14:16:37.752Z,10.77
2017-11-20T14:19:05.423Z,12.05
2017-11-20T14:21:33.039Z,10.00
2017-11-20T14:24:00.700Z,10.63
2017-11-20T14:26:28.321Z,12.93
2017-11-20T14:28:55.971Z,13.85
2017-11-20T14:31:23.587Z,11.45
2017-11-20T14:33:51.210Z,10.32
2017-11-20T14:36:18.883Z,9.00
2017-11-20T14:38:46.520Z,10.00
2017-11-20T14:41:14.167Z,9.25
2017-11-20T14:43:41.861Z,11.75
2017-11-20T14:46:09.522Z,8.57
2017-11-20T14:48:37.991Z,11.20
2017-11-20T14:54:20.404Z,11.30
2017-11-20T14:56:48.055Z,10.75
2017-11-20T14:59:15.669Z,6.28
2017-11-20T15:01:44.218Z,6.37
2017-11-20T15:04:11.879Z,6.65
2017-11-20T15:06:39.530Z,6.97
2017-11-20T15:09:07.176Z,6.78
2017-11-20T15:11:34.785Z,7.18
2017-11-20T15:14:03.204Z,6.35
2017-11-20T15:16:30.850Z,10.32
2017-11-20T15:18:58.623Z,8.48
2017-11-20T15:21:26.272Z,6.45
2017-11-20T15:23:53.875Z,5.95
2017-11-20T15:26:21.502Z,7.93
2017-11-20T15:28:49.150Z,8.57
2017-11-20T15:31:16.767Z,7.22
2017-11-20T15:33:44.447Z,6.07
2017-11-20T15:36:12.061Z,6.62
2017-11-20T15:38:39.678Z,8.20
2017-11-20T15:41:07.318Z,7.35
2017-11-20T15:43:34.935Z,5.05
2017-11-20T15:46:02.576Z,4.60
2017-11-20T15:48:30.192Z,5.57
2017-11-20T15:50:57.820Z,4.75
2017-11-20T15:53:25.507Z,4.45
2017-11-20T15:55:53.884Z,7.20
2017-11-20T15:58:21.527Z,4.30
2017-11-20T16:00:49.133Z,7.62
2017-11-20T16:03:16.747Z,4.80
2017-11-20T16:05:44.442Z,5.25
2017-11-20T16:08:12.842Z,4.57
2017-11-20T16:10:40.515Z,3.78
2017-11-20T16:13:08.137Z,4.40
2017-11-20T16:15:35.769Z,4.72
2017-11-20T16:18:03.398Z,4.75
2017-11-20T16:20:32.124Z,3.87
2017-11-20T16:22:59.774Z,4.68
2017-11-20T16:25:27.394Z,4.95
2017-11-20T16:27:55.008Z,4.72
2017-11-20T16:30:22.664Z,3.95
2017-11-20T16:32:50.295Z,4.57
2017-11-20T16:35:18.728Z,4.18
2017-11-20T16:37:46.345Z,4.70
2017-11-20T16:40:13.971Z,5.28
2017-11-20T16:42:43.792Z,4.20
2017-11-20T16:45:11.408Z,5.32
2017-11-20T16:47:39.819Z,4.80
2017-11-20T16:50:07.433Z,4.65
2017-11-20T16:52:35.055Z,5.40
2017-11-20T16:55:03.463Z,5.10
2017-11-20T16:57:42.830Z,5.35
2017-11-20T17:00:23.182Z,5.28
2017-11-20T17:03:05.830Z,4.78
2017-11-20T17:05:33.471Z,5.47
2017-11-20T17:08:01.103Z,4.10
2017-11-20T17:10:28.720Z,5.20
2017-11-20T17:12:56.376Z,4.78
2017-11-20T17:15:23.990Z,4.87
2017-11-20T17:17:51.607Z,5.25
2017-11-20T17:20:19.272Z,5.00
2017-11-20T17:22:46.903Z,5.22
2017-11-20T17:25:14.518Z,4.50
2017-11-20T17:27:42.198Z,5.40
2017-11-20T17:30:09.817Z,6.00
2017-11-20T17:32:37.467Z,5.80
2017-11-20T17:35:05.097Z,4.95
2017-11-20T17:37:32.715Z,5.28
2017-11-20T17:40:00.357Z,6.20
2017-11-20T17:42:28.248Z,5.00
2017-11-20T17:44:55.890Z,6.05
2017-11-20T17:47:23.536Z,6.30
2017-11-20T17:49:51.174Z,6.70
2017-11-20T17:52:18.828Z,6.80
2017-11-20T17:54:46.462Z,5.68
2017-11-20T17:57:14.114Z,6.50
2017-11-20T17:59:41.731Z,5.43
2017-11-20T18:02:09.431Z,7.22
2017-11-20T18:04:37.076Z,7.00
2017-11-20T18:07:04.727Z,6.22
2017-11-20T18:09:32.379Z,6.43
2017-11-20T18:12:00.181Z,5.40
2017-11-20T18:14:27.799Z,7.12
2017-11-20T18:16:55.440Z,5.40
2017-11-20T18:19:23.821Z,5.80
2017-11-20T18:21:51.459Z,6.68
2017-11-20T18:24:19.068Z,6.15
2017-11-20T18:26:46.695Z,7.57
2017-11-20T18:29:14.343Z,6.68
2017-11-20T18:31:41.969Z,6.97
2017-11-20T18:34:10.510Z,6.80
2017-11-20T18:36:38.181Z,6.85
2017-11-20T18:39:05.816Z,6.87
2017-11-20T18:41:33.483Z,6.95
2017-11-20T18:44:01.119Z,7.30
2017-11-20T18:46:28.839Z,7.50
2017-11-20T18:48:56.482Z,8.60
2017-11-20T18:51:24.120Z,9.00
2017-11-20T18:53:52.533Z,9.45
2017-11-20T18:56:20.165Z,8.43
2017-11-20T18:58:48.352Z,7.82
2017-11-20T19:01:27.782Z,8.35
2017-11-20T19:04:07.359Z,9.98
2017-11-20T19:06:46.759Z,10.50
2017-11-20T19:09:15.183Z,10.48
2017-11-20T19:11:45.955Z,10.75
2017-11-20T19:14:14.471Z,13.50
2017-11-20T19:16:42.153Z,13.60
2017-11-20T19:19:10.558Z,12.50
2017-11-20T19:21:38.233Z,12.35
2017-11-20T19:24:06.309Z,10.15
2017-11-20T19:26:34.039Z,12.10
2017-11-20T19:29:02.485Z,12.60
2017-11-20T19:31:30.250Z,11.32
2017-11-20T19:33:57.918Z,13.38
2017-11-20T19:36:25.614Z,11.20
2017-11-20T19:38:53.260Z,9.70
2017-11-20T19:41:20.869Z,9.35
2017-11-20T19:43:49.668Z,9.98
2017-11-20T19:46:17.695Z,11.02
2017-11-20T19:48:45.661Z,12.65
2017-11-20T19:51:14.102Z,10.55
2017-11-20T19:53:42.531Z,11.40
2017-11-20T19:56:10.139Z,11.05
2017-11-20T19:58:38.562Z,10.25
2017-11-20T20:01:06.199Z,11.95
2017-11-20T20:03:33.859Z,9.55
2017-11-20T20:06:01.482Z,9.70
2017-11-20T20:08:29.098Z,9.10
2017-11-20T20:10:56.738Z,10.30
2017-11-20T20:13:36.848Z,10.77
2017-11-20T20:16:16.306Z,9.45
2017-11-20T20:18:43.921Z,10.50
2017-11-20T20:21:11.590Z,10.35
2017-11-20T20:23:39.986Z,10.45
2017-11-20T20:26:07.637Z,10.82
2017-11-20T20:28:35.253Z,8.23
2017-11-20T20:31:03.631Z,9.10
2017-11-20T20:33:31.280Z,11.12
2017-11-20T20:35:58.906Z,11.98
2017-11-20T20:38:27.319Z,9.85
2017-11-20T20:40:54.964Z,11.05
2017-11-20T20:43:22.578Z,8.60
2017-11-20T20:45:50.228Z,9.52
2017-11-20T20:48:17.843Z,9.88
2017-11-20T20:50:46.255Z,7.57
2017-11-20T20:53:13.891Z,10.25
2017-11-20T20:55:41.522Z,10.63
2017-11-20T20:58:10.447Z,10.88
2017-11-20T21:00:38.075Z,14.43
2017-11-20T21:03:05.751Z,10.32
2017-11-20T21:05:33.377Z,8.63
2017-11-20T21:08:00.988Z,6.90
2017-11-20T21:10:34.185Z,7.78
2017-11-20T21:13:01.806Z,8.30
2017-11-20T21:15:29.461Z,7.45
2017-11-20T21:17:57.083Z,6.57
2017-11-20T21:20:24.744Z,8.70
2017-11-20T21:22:52.376Z,8.93
2017-11-20T21:25:20.029Z,10.20
2017-11-20T21:27:48.432Z,8.25
2017-11-20T21:30:16.044Z,9.20
2017-11-20T21:32:43.737Z,7.65
2017-11-20T21:35:11.457Z,7.40
2017-11-20T21:37:39.076Z,6.97
2017-11-20T21:42:41.688Z,9.77
2017-11-20T21:45:09.345Z,7.68
2017-11-20T21:47:38.036Z,8.38
2017-11-20T21:50:05.652Z,8.73
2017-11-20T21:52:33.354Z,8.45
2017-11-20T21:55:01.731Z,8.50
2017-11-20T21:57:29.457Z,8.38
2017-11-20T21:59:57.089Z,9.10
2017-11-20T22:02:24.703Z,7.45
2017-11-20T22:04:52.374Z,17.02
2017-11-20T22:07:20.025Z,12.80
2017-11-20T22:09:47.687Z,9.57
2017-11-20T22:12:16.400Z,9.15
2017-11-20T22:14:44.289Z,9.30
2017-11-20T22:17:12.326Z,7.95
2017-11-20T22:19:39.939Z,8.02
2017-11-20T22:22:07.609Z,8.35
2017-11-20T22:24:35.236Z,8.43
2017-11-20T22:27:02.857Z,8.95
2017-11-20T22:29:31.267Z,10.57
2017-11-20T22:31:58.880Z,8.82
2017-11-20T22:34:26.535Z,10.18
2017-11-20T22:36:54.164Z,13.45
2017-11-20T22:39:21.789Z,12.48
2017-11-20T22:41:49.440Z,10.18
2017-11-20T22:44:17.055Z,7.97
2017-11-20T22:46:44.711Z,10.82
2017-11-20T22:49:13.097Z,10.35
2017-11-20T22:51:40.712Z,7.45
2017-11-20T22:54:08.362Z,13.02
2017-11-20T22:56:36.004Z,9.50
2017-11-20T22:59:03.657Z,10.10
2017-11-20T23:01:32.061Z,8.35
2017-11-20T23:03:59.684Z,10.52
2017-11-20T23:06:28.098Z,9.50
2017-11-20T23:08:55.722Z,7.47
2017-11-20T23:11:23.405Z,9.00
2017-11-20T23:13:51.032Z,10.20
2017-11-20T23:16:18.639Z,9.38
2017-11-20T23:18:46.282Z,7.30
2017-11-20T23:21:13.902Z,8.38
2017-11-20T23:23:42.367Z,8.30
2017-11-20T23:26:09.982Z,9.50
2017-11-20T23:28:37.633Z,7.75
2017-11-20T23:31:05.408Z,6.55
2017-11-20T23:33:33.021Z,9.13
2017-11-20T23:36:00.671Z,6.70
2017-11-20T23:38:28.286Z,9.02
2017-11-20T23:40:55.906Z,6.68
2017-11-20T23:43:24.348Z,7.30
2017-11-20T23:45:51.956Z,5.95
2017-11-20T23:48:19.630Z,7.37
2017-11-20T23:50:47.239Z,5.95
2017-11-20T23:53:27.463Z,5.80
2017-11-20T23:55:55.073Z,5.35
2017-11-20T23:58:22.699Z,5.43
